PST,Max TemperatureF,Mean TemperatureF,Min TemperatureF,Max Dew PointF,MeanDew PointF,Min DewpointF,Max Humidity, Mean Humidity, Min Humidity, Max Sea Level PressureIn, Mean Sea Level PressureIn, Min Sea Level PressureIn, Max VisibilityMiles, Mean VisibilityMiles, Min VisibilityMiles, Max Wind SpeedMPH, Mean Wind SpeedMPH, Max Gust SpeedMPH,PrecipitationIn, CloudCover, Events, WindDirDegrees
2012-11-1,73,61,49,53,51,45,100,75,49,30.02,29.99,29.92,10,3,0,14,4,21,0.00,4,Fog,307
2012-11-2,70,62,53,53,48,42,93,70,47,30.01,29.97,29.90,10,6,1,12,4,16,0.00,3,,340
2012-11-3,82,59,35,53,41,34,100,63,26,30.05,30.00,29.96,10,5,0,16,5,21,0.00,1,Fog,302
2012-11-4,89,65,40,43,31,15,96,52,7,30.09,30.05,30.00,10,10,7,17,5,23,0.00,0,,84
2012-11-5,93,68,43,38,30,21,60,34,8,30.09,30.04,29.99,10,10,10,12,3,,0.00,0,,85
2012-11-6,85,63,40,47,38,30,70,43,15,30.09,30.05,30.01,10,10,10,13,3,16,0.00,0,,295
2012-11-7,77,58,38,49,44,36,83,54,24,30.06,30.01,29.96,10,7,0,13,4,22,0.00,2,Fog,290
2012-11-8,66,58,49,55,53,48,100,84,67,30.06,29.95,29.89,10,5,0,17,5,30,0.05,7,Fog-Rain,236
2012-11-9,59,55,50,54,47,38,100,74,47,29.96,29.93,29.88,10,9,2,21,9,26,0.05,7,Rain,279
2012-11-10,58,48,37,46,40,34,100,74,47,30.16,30.02,29.95,10,7,0,23,6,29,0.01,3,Fog-Rain,294
2012-11-11,65,47,28,37,23,14,100,57,13,30.27,30.22,30.17,10,10,5,17,5,23,0.00,0,,85
2012-11-12,75,55,34,33,19,2,54,30,6,30.23,30.15,30.08,10,10,10,21,10,25,0.00,0,,56
2012-11-13,83,58,33,27,9,-8,70,37,4,30.12,30.05,29.98,10,10,10,23,12,30,0.00,0,,74
2012-11-14,79,58,37,37,29,16,64,37,10,30.07,30.03,29.98,10,10,10,13,4,16,0.00,0,,279
2012-11-15,67,56,45,40,32,18,71,43,15,30.12,30.07,30.02,10,10,10,13,2,15,0.00,3,,224
2012-11-16,73,57,40,50,41,32,76,53,30,30.12,30.07,30.01,10,10,10,22,3,33,0.00,4,,215
2012-11-17,70,60,49,55,52,47,93,74,55,30.13,30.08,30.04,10,10,10,16,4,20,0.00,7,,280
2012-11-18,70,58,46,54,48,43,100,77,53,30.19,30.13,30.07,10,4,0,14,3,17,0.00,5,Fog,276
2012-11-19,71,54,36,52,42,36,100,74,47,30.24,30.19,30.14,10,4,0,18,4,32,0.00,3,Fog,282
2012-11-20,72,53,33,51,41,32,100,71,41,30.17,30.11,30.04,10,4,0,13,3,,0.00,2,Fog,299
2012-11-21,68,50,32,52,40,32,100,76,52,30.10,30.07,30.03,10,3,0,13,4,16,0.00,2,Fog,287
2012-11-22,74,55,35,53,40,34,100,69,38,30.13,30.08,30.03,10,4,0,12,3,23,0.00,2,Fog,308
2012-11-23,84,60,36,47,38,30,93,55,16,30.15,30.11,30.06,10,8,2,12,3,16,0.00,0,,283
2012-11-24,87,64,40,40,34,23,73,42,10,30.08,30.00,29.92,10,10,10,14,3,17,0.00,0,,311
2012-11-25,77,58,38,52,43,33,79,50,21,29.98,29.93,29.88,10,7,0,15,4,17,0.00,0,Fog,302
2012-11-26,69,56,43,51,45,39,100,75,49,30.11,30.06,29.96,10,3,0,13,4,16,0.00,1,Fog,298
2012-11-27,76,56,35,54,47,35,100,68,35,30.18,30.11,30.02,10,4,0,15,2,18,0.00,2,Fog,288
2012-11-28,70,58,46,52,49,46,100,72,44,30.21,30.15,30.10,10,4,0,14,4,18,0.00,6,Fog,70
2012-11-29,69,60,51,58,53,48,93,78,63,30.25,30.19,30.13,10,5,0,12,3,15,T,7,Rain,79
2012-11-30,64,59,54,61,59,54,100,95,90,30.18,30.14,30.09,10,6,0,9,2,14,0.06,8,Fog-Rain,277